Time;durP1;ratioP1;P1;durP2;ratioP2;P2;SDS_P1;SDS_P2;PMS_P1;PMS_P2;Temp;Humidity;BMP_temperature;BMP_pressure;BME280_temperature;BME280_humidity;BME280_pressure;Samples;Min_cycle;Max_cycle;Signal;HPM_P1;HPM_P2
2023/03/21 00:01:03;;;;;;;;;;;6.20;84.00;;;-151.14;100.00;62537.16;5070638;28;19921;-84
2023/03/21 00:03:32;;;;;;;;;;;6.20;83.90;;;-151.14;100.00;62537.16;5069914;28;19921;-83
2023/03/21 00:06:04;;;;;;;;;;;6.20;83.90;;;;;;5071657;28;19920;-83
2023/03/21 00:08:32;;;;;;;;;;;6.20;83.90;;;-151.14;100.00;62537.16;5070651;28;19926;-83
2023/03/21 00:11:00;;;;;;;;;;;6.20;84.00;;;-151.14;100.00;62537.16;5070419;28;19927;-82
2023/03/21 00:13:31;;;;;;;;;;;6.20;84.00;;;5.00;100.00;62537.16;5070941;28;19927;-83
2023/03/21 00:16:04;;;;;;;;;;;6.20;83.90;;;-151.14;100.00;62537.16;5053853;28;19921;-82
2023/03/21 00:18:35;;;;;;;;;;;6.20;84.00;;;-151.14;100.00;62537.16;5042724;28;19925;-83
2023/03/21 00:21:05;;;;;;;;;;;6.20;84.00;;;-151.14;100.00;62537.16;5050755;28;20212;-82
2023/03/21 00:23:33;;;;;;;;;;;6.20;84.00;;;-151.14;100.00;62537.16;5033224;28;19927;-82
2023/03/21 00:26:01;;;;;;;;;;;6.20;84.00;;;-151.14;100.00;62537.16;5066974;28;19928;-83
2023/03/21 00:28:29;;;;;;;;;;;6.20;84.00;;;4.99;100.00;62537.16;5033581;28;19921;-83
2023/03/21 00:30:58;;;;;;;;;;;6.20;84.00;;;-151.14;100.00;62537.16;5050288;28;19927;-83
2023/03/21 00:33:27;;;;;;;;;;;6.20;84.00;;;-151.14;100.00;62537.16;5033123;28;19921;-82
2023/03/21 00:35:54;;;;;;;;;;;6.20;84.00;;;-151.14;100.00;62537.16;5033791;28;19921;-83
2023/03/21 00:38:24;;;;;;;;;;;6.20;84.00;;;-151.14;100.00;62537.16;5051368;28;19921;-83
2023/03/21 00:40:52;;;;;;;;;;;6.20;84.00;;;-151.14;100.00;62537.16;5049997;28;19921;-83
2023/03/21 00:43:22;;;;;;;;;;;6.20;84.00;;;-151.14;100.00;62537.16;5049582;28;19927;-82
2023/03/21 00:45:51;;;;;;;;;;;6.20;84.00;;;-151.14;100.00;62537.16;5035940;28;19924;-83
2023/03/21 00:48:19;;;;;;;;;;;6.20;84.00;;;-151.14;100.00;62537.16;5053587;28;19920;-83
2023/03/21 00:50:47;;;;;;;;;;;6.20;84.00;;;-151.14;100.00;62537.16;5053511;28;19921;-83
2023/03/21 00:53:15;;;;;;;;;;;6.20;84.00;;;-151.14;100.00;62537.16;5069693;28;19927;-83
2023/03/21 00:55:45;;;;;;;;;;;6.20;84.00;;;-151.14;100.00;62537.16;5036838;28;20208;-82
2023/03/21 00:58:13;;;;;;;;;;;6.20;84.00;;;-151.14;100.00;62537.16;5036984;28;20112;-83
2023/03/21 01:00:41;;;;;;;;;;;6.20;84.10;;;-151.14;100.00;62537.16;5036849;28;20121;-82
2023/03/21 01:03:11;;;;;;;;;;;6.20;84.10;;;-151.14;100.00;62537.16;5052890;28;19935;-83
2023/03/21 01:08:26;;;;;;;;;;;6.20;84.10;;;-151.14;100.00;62537.16;5053391;28;19921;-82
2023/03/21 01:10:56;;;;;;;;;;;6.20;84.10;;;5.02;100.00;62537.16;5036695;28;19920;-82
2023/03/21 01:13:24;;;;;;;;;;;6.20;84.10;;;-151.14;100.00;62537.16;5052833;28;19936;-83
2023/03/21 01:15:53;;;;;;;;;;;6.20;84.00;;;-151.14;100.00;62537.16;5036573;28;20116;-82
2023/03/21 01:18:23;;;;;;;;;;;6.20;84.00;;;-151.14;100.00;62537.16;5054302;28;19927;-82
2023/03/21 01:20:52;;;;;;;;;;;6.20;84.10;;;-151.14;100.00;62537.16;5052877;28;20112;-82
2023/03/21 01:23:20;;;;;;;;;;;6.20;84.00;;;-151.14;100.00;62537.16;5052686;28;19921;-83
2023/03/21 01:25:48;;;;;;;;;;;6.20;84.00;;;-151.14;100.00;62537.16;5036313;28;19984;-82
2023/03/21 01:28:17;;;;;;;;;;;6.20;84.10;;;-151.14;100.00;62537.16;5036424;28;19928;-82
2023/03/21 01:30:46;;;;;;;;;;;6.20;84.00;;;-151.14;100.00;62537.16;5036494;28;19927;-83
2023/03/21 01:33:14;;;;;;;;;;;6.20;84.90;;;-151.14;100.00;62537.16;5035889;28;19927;-83
2023/03/21 01:35:42;;;;;;;;;;;6.20;84.10;;;-151.14;100.00;62537.16;5052901;28;19927;-83
2023/03/21 01:38:10;;;;;;;;;;;6.20;84.10;;;-151.14;100.00;62537.16;5036291;28;19921;-83
2023/03/21 01:40:40;;;;;;;;;;;6.20;84.10;;;5.00;100.00;62537.16;5036329;28;20152;-82
2023/03/21 01:43:23;;;;;;;;;;;6.20;84.10;;;-151.14;100.00;62537.16;5035709;28;19927;-83
2023/03/21 01:46:25;;;;;;;;;;;6.20;84.00;;;-151.14;100.00;62537.16;5036262;28;19921;-82
2023/03/21 01:49:07;;;;;;;;;;;6.20;84.10;;;-151.14;100.00;62537.16;5052618;28;19921;-83
2023/03/21 01:51:37;;;;;;;;;;;6.20;84.00;;;-151.14;100.00;62537.16;5069454;28;19921;-82
2023/03/21 01:54:06;;;;;;;;;;;6.20;84.10;;;-151.14;100.00;62537.16;5035541;28;20213;-83
2023/03/21 01:56:35;;;;;;;;;;;6.20;84.00;;;-151.14;100.00;62537.16;5035976;28;19927;-83
2023/03/21 01:59:11;;;;;;;;;;;6.20;84.10;;;-151.14;100.00;62537.16;5035955;28;19921;-82
2023/03/21 02:02:06;;;;;;;;;;;6.20;84.10;;;-151.14;100.00;62537.16;5037022;28;19943;-82
2023/03/21 02:04:38;;;;;;;;;;;6.20;84.10;;;-151.14;100.00;62537.16;5035388;28;19921;-82
2023/03/21 02:07:16;;;;;;;;;;;6.20;84.10;;;-151.14;100.00;62537.16;5052368;28;19927;-82
2023/03/21 02:09:54;;;;;;;;;;;6.20;84.10;;;-151.14;100.00;62537.16;5042542;28;19927;-82
2023/03/21 02:12:24;;;;;;;;;;;6.20;84.10;;;-151.14;100.00;62537.16;5055797;28;19920;-82
2023/03/21 02:14:53;;;;;;;;;;;6.20;84.10;;;-151.14;100.00;62537.16;5054961;28;19921;-82
2023/03/21 02:17:36;;;;;;;;;;;6.20;84.10;;;5.00;100.00;62537.16;5055712;28;19927;-83
2023/03/21 02:20:44;;;;;;;;;;;6.20;84.10;;;-151.14;100.00;62537.16;5072082;28;20112;-83
2023/03/21 02:23:38;;;;;;;;;;;6.20;84.10;;;-151.14;100.00;62537.16;5055033;28;19921;-82
2023/03/21 02:26:32;;;;;;;;;;;6.20;84.10;;;-151.14;100.00;62537.16;5055491;28;19920;-83
2023/03/21 02:29:02;;;;;;;;;;;6.20;84.10;;;-151.14;100.00;62537.16;5072032;28;19924;-82
2023/03/21 02:31:42;;;;;;;;;;;6.20;84.10;;;-151.14;100.00;62537.16;5055336;28;19926;-82
2023/03/21 02:34:40;;;;;;;;;;;6.20;84.10;;;-151.14;100.00;62537.16;5054981;28;20250;-82
2023/03/21 02:37:17;;;;;;;;;;;6.20;84.00;;;-151.14;100.00;62537.16;5015601;28;19928;-82
2023/03/21 02:39:54;;;;;;;;;;;6.20;84.00;;;-151.14;100.00;62537.16;5031986;28;20127;-82
2023/03/21 02:42:27;;;;;;;;;;;6.20;84.00;;;-151.14;100.00;62537.16;5015618;28;19928;-82
2023/03/21 02:44:58;;;;;;;;;;;6.20;84.00;;;-151.14;100.00;62537.16;5031492;28;19921;-82
2023/03/21 02:47:29;;;;;;;;;;;6.20;84.10;;;-151.14;100.00;62537.16;5015399;28;19921;-82
2023/03/21 02:49:59;;;;;;;;;;;6.20;84.10;;;5.01;100.00;62537.16;5032002;28;19928;-82
2023/03/21 02:52:29;;;;;;;;;;;6.20;84.00;;;-151.14;100.00;62537.16;5031649;28;20231;-82
2023/03/21 02:54:58;;;;;;;;;;;6.20;84.10;;;-151.14;100.00;62537.16;5015167;28;19921;-82
2023/03/21 02:57:32;;;;;;;;;;;6.20;84.10;;;-151.14;100.00;62537.16;5031837;28;19927;-82
2023/03/21 03:00:10;;;;;;;;;;;6.20;84.00;;;-151.14;100.00;62537.16;5031698;28;19927;-82
2023/03/21 03:02:40;;;;;;;;;;;6.20;84.00;;;-151.14;100.00;62537.16;5014852;28;19921;-82
2023/03/21 03:05:14;;;;;;;;;;;6.20;84.00;;;-151.14;100.00;62537.16;5015300;28;19921;-83
2023/03/21 03:07:49;;;;;;;;;;;6.20;84.10;;;-151.14;100.00;62537.16;5014586;28;19921;-82
2023/03/21 03:10:26;;;;;;;;;;;6.20;84.10;;;-151.14;100.00;62537.16;5015285;28;19921;-82
2023/03/21 03:13:00;;;;;;;;;;;6.20;84.10;;;-151.14;100.00;62537.16;5014531;28;19921;-82
2023/03/21 03:15:34;;;;;;;;;;;6.20;84.00;;;-151.14;100.00;62537.16;5031430;28;19921;-82
2023/03/21 03:18:10;;;;;;;;;;;6.20;84.00;;;-151.14;100.00;62537.16;5031539;28;19921;-83
2023/03/21 03:20:45;;;;;;;;;;;6.20;84.00;;;-151.14;100.00;62537.16;5031238;28;19921;-82
2023/03/21 03:23:19;;;;;;;;;;;6.20;84.00;;;-151.14;100.00;62537.16;5013777;28;19921;-83
2023/03/21 03:25:50;;;;;;;;;;;6.20;84.00;;;-151.14;100.00;62537.16;5013989;28;19921;-83
2023/03/21 03:28:20;;;;;;;;;;;6.20;84.00;;;5.04;100.00;62537.16;5014903;28;20205;-83
2023/03/21 03:30:48;;;;;;;;;;;6.20;84.00;;;-151.14;100.00;62537.16;5031318;28;19927;-82
2023/03/21 03:33:16;;;;;;;;;;;6.20;84.10;;;-151.14;100.00;62537.16;5030588;28;19928;-82
2023/03/21 03:35:45;;;;;;;;;;;6.20;84.00;;;-151.14;100.00;62537.16;5014717;28;19928;-82
2023/03/21 03:38:14;;;;;;;;;;;6.20;84.00;;;-151.14;100.00;62537.16;5014884;28;19927;-83
2023/03/21 03:40:45;;;;;;;;;;;6.20;84.00;;;-151.14;100.00;62537.16;5030849;28;19921;-83
2023/03/21 03:43:32;;;;;;;;;;;6.20;84.00;;;-151.14;100.00;62537.16;5014203;28;19921;-83
2023/03/21 03:46:05;;;;;;;;;;;6.20;84.10;;;-151.14;100.00;62537.16;5036539;28;19943;-82
2023/03/21 03:48:33;;;;;;;;;;;6.20;84.10;;;-151.14;100.00;62537.16;5054063;28;20208;-83
2023/03/21 03:51:04;;;;;;;;;;;6.20;84.10;;;5.02;100.00;62537.16;5053904;28;20231;-83
2023/03/21 03:53:56;;;;;;;;;;;6.20;84.10;;;-151.14;100.00;62537.16;5053904;28;20238;-82
2023/03/21 03:56:31;;;;;;;;;;;6.20;84.10;;;-151.14;100.00;62537.16;5054072;28;19965;-82
2023/03/21 03:58:59;;;;;;;;;;;6.20;84.10;;;-151.14;100.00;62537.16;5054003;28;19927;-83
2023/03/21 04:01:44;;;;;;;;;;;6.20;84.10;;;5.03;100.00;62537.16;5070443;28;19942;-83
2023/03/21 04:04:15;;;;;;;;;;;6.20;84.10;;;-151.14;100.00;62537.16;5053360;28;20093;-82
2023/03/21 04:06:50;;;;;;;;;;;6.20;84.10;;;-151.14;100.00;62537.16;5053801;28;19927;-83
2023/03/21 04:09:21;;;;;;;;;;;6.20;84.10;;;-151.14;100.00;62537.16;5053772;28;19927;-83
2023/03/21 04:11:51;;;;;;;;;;;6.20;84.10;;;-151.14;100.00;62537.16;5070346;28;19920;-83
2023/03/21 04:14:20;;;;;;;;;;;6.20;84.10;;;-151.14;100.00;62537.16;5053339;28;19920;-83
2023/03/21 04:16:49;;;;;;;;;;;6.20;84.10;;;-151.14;100.00;62537.16;5070342;28;20358;-83
2023/03/21 04:19:17;;;;;;;;;;;6.20;84.10;;;-151.14;100.00;62537.16;5069355;28;19928;-83
2023/03/21 04:21:46;;;;;;;;;;;6.20;84.10;;;-151.14;100.00;62537.16;5086956;28;19927;-83
2023/03/21 04:24:14;;;;;;;;;;;6.20;84.10;;;-151.14;100.00;62537.16;5053187;28;19920;-82
2023/03/21 04:26:45;;;;;;;;;;;6.20;84.10;;;5.03;100.00;62537.16;5070178;28;19927;-83
2023/03/21 04:29:28;;;;;;;;;;;6.20;84.10;;;-151.14;100.00;62537.16;5053579;28;20111;-83
2023/03/21 04:32:18;;;;;;;;;;;6.20;84.10;;;-151.14;100.00;62537.16;5071307;28;20142;-83
2023/03/21 04:34:54;;;;;;;;;;;6.30;84.20;;;-151.14;100.00;62537.16;5053215;28;19921;-82
2023/03/21 04:37:23;;;;;;;;;;;6.20;84.10;;;-151.14;100.00;62537.16;5070222;28;19920;-83
2023/03/21 04:39:52;;;;;;;;;;;6.20;84.10;;;-151.14;100.00;62537.16;5053428;28;19927;-82
2023/03/21 04:42:20;;;;;;;;;;;6.20;84.10;;;-151.14;100.00;62537.16;5053415;28;19926;-82
2023/03/21 04:44:50;;;;;;;;;;;6.20;84.10;;;-151.14;100.00;62537.16;5052764;28;19921;-83
2023/03/21 04:47:19;;;;;;;;;;;6.30;84.20;;;-151.14;100.00;62537.16;5053389;28;19921;-83
2023/03/21 04:49:48;;;;;;;;;;;6.20;84.10;;;5.04;100.00;62537.16;5069677;28;19921;-83
2023/03/21 04:52:16;;;;;;;;;;;6.20;84.00;;;5.04;100.00;62537.16;5045618;28;19921;-82
2023/03/21 04:54:44;;;;;;;;;;;6.20;84.10;;;-151.14;100.00;62537.16;5013233;28;19921;-83
2023/03/21 04:57:11;;;;;;;;;;;6.30;84.20;;;-151.14;100.00;62537.16;5030037;28;19927;-83
2023/03/21 04:59:40;;;;;;;;;;;6.20;84.10;;;-151.14;100.00;62537.16;5013691;28;19927;-83
2023/03/21 05:02:09;;;;;;;;;;;6.20;84.10;;;-151.14;100.00;62537.16;5013474;28;19921;-83
2023/03/21 05:04:37;;;;;;;;;;;6.20;84.10;;;-151.14;100.00;62537.16;5013204;28;19921;-83
2023/03/21 05:07:05;;;;;;;;;;;6.20;84.10;;;-151.14;100.00;62537.16;5013546;28;19928;-82
2023/03/21 05:09:33;;;;;;;;;;;6.20;84.10;;;-151.14;100.00;62537.16;5013214;28;19921;-82
2023/03/21 05:12:01;;;;;;;;;;;6.30;84.20;;;-151.14;100.00;62537.16;5030026;28;19921;-83
2023/03/21 05:14:31;;;;;;;;;;;6.30;84.30;;;-151.14;100.00;62537.16;5029282;28;19921;-82
2023/03/21 05:17:04;;;;;;;;;;;6.30;84.20;;;18.09;100.00;62537.16;5013408;28;19921;-83
2023/03/21 05:19:39;;;;;;;;;;;6.20;84.10;;;-151.14;100.00;62537.16;5046331;28;19925;-82
2023/03/21 05:22:09;;;;;;;;;;;6.30;84.20;;;-151.14;100.00;62537.16;5013403;28;19928;-82
2023/03/21 05:24:38;;;;;;;;;;;6.20;84.10;;;-151.14;100.00;62537.16;5029295;28;19921;-82
2023/03/21 05:27:07;;;;;;;;;;;6.30;84.20;;;-151.14;100.00;62537.16;5029903;28;19921;-82
2023/03/21 05:29:42;;;;;;;;;;;6.30;84.20;;;-151.14;100.00;62537.16;5068564;28;19921;-82
2023/03/21 05:32:11;;;;;;;;;;;6.30;84.20;;;-151.14;100.00;62537.16;5072286;28;19920;-82
2023/03/21 05:34:41;;;;;;;;;;;6.30;84.20;;;-151.14;100.00;62537.16;5072346;28;20112;-82
2023/03/21 05:37:09;;;;;;;;;;;6.30;84.20;;;-151.14;100.00;62537.16;5089795;28;19921;-82
2023/03/21 05:39:47;;;;;;;;;;;6.30;84.20;;;-151.14;100.00;62537.16;5056110;28;20230;-82
2023/03/21 05:42:23;;;;;;;;;;;6.30;84.20;;;-151.14;100.00;62537.16;5056194;28;20212;-82
2023/03/21 05:44:51;;;;;;;;;;;6.30;84.10;;;-151.14;100.00;62537.16;5036904;28;19921;-82
2023/03/21 05:47:24;;;;;;;;;;;6.30;84.20;;;-151.14;100.00;62537.16;5052812;28;19921;-82
2023/03/21 05:49:55;;;;;;;;;;;6.30;84.20;;;-151.14;100.00;62537.16;5052450;28;19927;-82
2023/03/21 05:52:24;;;;;;;;;;;6.30;85.00;;;-151.14;100.00;62537.16;5036100;28;19927;-82
2023/03/21 05:54:52;;;;;;;;;;;6.30;84.10;;;-151.14;100.00;62537.16;5052376;28;20112;-83
2023/03/21 05:57:23;;;;;;;;;;;6.30;84.10;;;-151.14;100.00;62537.16;5035977;28;19921;-83
2023/03/21 06:00:07;;;;;;;;;;;6.30;84.10;;;-151.14;100.00;62537.16;5036072;28;19927;-83
2023/03/21 06:02:43;;;;;;;;;;;6.30;84.00;;;-151.14;100.00;62537.16;5053031;28;19951;-83
2023/03/21 06:05:30;;;;;;;;;;;6.30;84.10;;;-151.14;100.00;62537.16;5032463;28;19925;-83
2023/03/21 06:07:59;;;;;;;;;;;6.30;84.10;;;-151.14;100.00;62537.16;5032443;28;19921;-83
2023/03/21 06:10:27;;;;;;;;;;;6.30;84.10;;;18.08;100.00;62537.16;5016050;28;19947;-83
2023/03/21 06:12:55;;;;;;;;;;;6.30;84.00;;;-151.14;100.00;62537.16;5031987;28;20136;-83
2023/03/21 06:15:30;;;;;;;;;;;6.30;84.00;;;-151.14;100.00;62537.16;5072064;28;20115;-83
2023/03/21 06:18:10;;;;;;;;;;;6.30;84.00;;;-151.14;100.00;62537.16;5072355;28;19920;-83
2023/03/21 06:20:42;;;;;;;;;;;6.30;83.90;;;-151.14;100.00;62537.16;5055697;28;19934;-83
2023/03/21 06:23:13;;;;;;;;;;;6.30;84.00;;;-151.14;100.00;62537.16;5071795;28;20212;-83
2023/03/21 06:25:41;;;;;;;;;;;6.30;83.90;;;-151.14;100.00;62537.16;5032249;28;19928;-83
2023/03/21 06:28:09;;;;;;;;;;;6.30;84.00;;;-151.14;100.00;62537.16;5032114;28;19921;-83
2023/03/21 06:30:40;;;;;;;;;;;6.30;83.90;;;-151.14;100.00;62537.16;5032088;28;19921;-84
2023/03/21 06:33:16;;;;;;;;;;;6.30;83.90;;;-151.14;100.00;62537.16;5031568;28;19921;-83
2023/03/21 06:35:51;;;;;;;;;;;6.30;84.00;;;-151.14;100.00;62537.16;5032390;28;20121;-83
2023/03/21 06:38:20;;;;;;;;;;;6.30;83.90;;;-151.14;100.00;62537.16;5032009;28;19928;-83
2023/03/21 06:40:49;;;;;;;;;;;6.30;83.90;;;-151.14;100.00;62537.16;5032063;28;19921;-83
2023/03/21 06:43:17;;;;;;;;;;;6.30;83.90;;;-151.14;100.00;62537.16;5030453;28;19928;-83
2023/03/21 06:45:46;;;;;;;;;;;6.40;84.00;;;-151.14;100.00;62537.16;5031886;28;19921;-83
2023/03/21 06:48:14;;;;;;;;;;;6.30;83.90;;;-151.14;100.00;62537.16;5048548;28;19921;-83
2023/03/21 06:50:49;;;;;;;;;;;6.40;83.90;;;-151.14;100.00;62537.16;5066442;28;19920;-83
2023/03/21 06:53:19;;;;;;;;;;;6.30;84.00;;;-151.14;100.00;62537.16;5071331;28;19920;-83
2023/03/21 06:56:06;;;;;;;;;;;6.40;83.90;;;-151.14;100.00;62537.16;5071593;28;19920;-83
2023/03/21 06:58:36;;;;;;;;;;;6.40;83.90;;;-151.14;100.00;62537.16;5055021;28;19926;-83
2023/03/21 07:01:06;;;;;;;;;;;6.40;83.90;;;-151.14;100.00;62537.16;5054835;28;19920;-83
2023/03/21 07:03:40;;;;;;;;;;;6.40;84.00;;;-151.14;100.00;62537.16;5071067;28;20234;-83
2023/03/21 07:06:12;;;;;;;;;;;6.40;83.90;;;-151.14;100.00;62537.16;5071676;28;20212;-83
2023/03/21 07:08:40;;;;;;;;;;;6.40;83.90;;;-151.14;100.00;62537.16;5054533;28;19921;-83
2023/03/21 07:11:08;;;;;;;;;;;6.40;83.90;;;-151.14;100.00;62537.16;5071340;28;19927;-83
2023/03/21 07:13:36;;;;;;;;;;;6.40;83.90;;;-151.14;100.00;62537.16;5070739;28;19920;-83
2023/03/21 07:16:06;;;;;;;;;;;6.40;83.90;;;-151.14;100.00;62537.16;5038171;28;19927;-83
2023/03/21 07:18:34;;;;;;;;;;;6.40;83.90;;;-151.14;100.00;62537.16;5034584;28;19920;-84
2023/03/21 07:21:02;;;;;;;;;;;6.40;83.90;;;-151.14;100.00;62537.16;5034800;28;19931;-83
2023/03/21 07:23:32;;;;;;;;;;;6.40;83.80;;;-151.14;100.00;62537.16;5050584;28;19927;-83
2023/03/21 07:26:00;;;;;;;;;;;6.40;83.70;;;-151.14;100.00;62537.16;5051165;28;19927;-83
2023/03/21 07:28:30;;;;;;;;;;;6.40;83.80;;;-151.14;100.00;62537.16;5034712;28;19925;-83
2023/03/21 07:30:59;;;;;;;;;;;6.40;83.80;;;-151.14;100.00;62537.16;5050911;28;20209;-83
2023/03/21 07:33:27;;;;;;;;;;;6.40;83.70;;;-151.14;100.00;62537.16;5034324;28;19931;-83
2023/03/21 07:35:59;;;;;;;;;;;6.40;83.70;;;-151.14;100.00;62537.16;5034524;28;19921;-83
2023/03/21 07:38:29;;;;;;;;;;;6.40;83.70;;;-151.14;100.00;62537.16;5034397;28;19927;-83
2023/03/21 07:41:00;;;;;;;;;;;6.40;83.70;;;-151.14;100.00;62537.16;5062823;28;19935;-84
2023/03/21 07:43:32;;;;;;;;;;;6.40;83.70;;;-151.14;100.00;62537.16;5053705;28;19926;-83
2023/03/21 07:46:00;;;;;;;;;;;6.40;83.60;;;-151.14;100.00;62537.16;5042634;28;19927;-83
2023/03/21 07:48:28;;;;;;;;;;;6.40;83.70;;;-151.14;100.00;62537.16;5034434;28;19936;-83
2023/03/21 07:50:56;;;;;;;;;;;6.40;83.70;;;-151.14;100.00;62537.16;5067190;28;19921;-83
2023/03/21 07:53:24;;;;;;;;;;;6.50;83.90;;;-151.14;100.00;62537.16;5033716;28;19921;-82
2023/03/21 07:55:54;;;;;;;;;;;6.50;83.80;;;-151.14;100.00;62537.16;5034113;28;19921;-83
2023/03/21 07:58:23;;;;;;;;;;;6.50;83.80;;;-151.14;100.00;62537.16;5050895;28;19951;-84
2023/03/21 08:00:51;;;;;;;;;;;6.50;83.70;;;-151.14;100.00;62537.16;5034059;28;19927;-83
2023/03/21 08:03:20;;;;;;;;;;;6.50;83.70;;;-151.14;100.00;62537.16;5033630;28;19921;-83
2023/03/21 08:05:48;;;;;;;;;;;6.50;83.70;;;-151.14;100.00;62537.16;5051612;28;19921;-83
2023/03/21 08:08:16;;;;;;;;;;;6.50;83.70;;;-151.14;100.00;62537.16;5034109;28;19921;-83
2023/03/21 08:10:44;;;;;;;;;;;6.50;83.70;;;-151.14;100.00;62537.16;5033891;28;19928;-83
2023/03/21 08:13:12;;;;;;;;;;;6.50;83.70;;;-151.14;100.00;62537.16;5050025;28;19927;-83
2023/03/21 08:15:41;;;;;;;;;;;6.50;83.70;;;-151.14;100.00;62537.16;5067222;28;19921;-83
2023/03/21 08:18:10;;;;;;;;;;;6.50;83.70;;;-151.14;100.00;62537.16;5034013;28;19931;-83
2023/03/21 08:20:37;;;;;;;;;;;6.50;83.70;;;-151.14;100.00;62537.16;5050286;28;19927;-83
2023/03/21 08:23:06;;;;;;;;;;;6.50;83.80;;;-151.14;100.00;62537.16;5033396;28;19920;-83
2023/03/21 08:25:34;;;;;;;;;;;6.50;83.70;;;-151.14;100.00;62537.16;5033749;28;19927;-83
2023/03/21 08:28:02;;;;;;;;;;;6.50;83.80;;;-151.14;100.00;62537.16;5033893;28;19935;-83
2023/03/21 08:30:30;;;;;;;;;;;6.50;83.70;;;-151.14;100.00;62537.16;5050124;28;19943;-83
2023/03/21 08:33:00;;;;;;;;;;;6.50;83.70;;;-151.14;100.00;62537.16;5049902;28;19921;-84
2023/03/21 08:35:29;;;;;;;;;;;6.50;83.70;;;-151.14;100.00;62537.16;5033692;28;19927;-83
2023/03/21 08:37:57;;;;;;;;;;;6.50;83.70;;;-151.14;100.00;62537.16;5051378;28;19935;-83
2023/03/21 08:40:25;;;;;;;;;;;6.50;83.70;;;-151.14;100.00;62537.16;5033624;28;19925;-83
2023/03/21 08:42:53;;;;;;;;;;;6.50;83.70;;;-151.14;100.00;62537.16;5033184;28;19927;-83
2023/03/21 08:45:21;;;;;;;;;;;6.60;83.70;;;-151.14;100.00;62537.16;5033386;28;20121;-83
2023/03/21 08:47:49;;;;;;;;;;;6.50;83.70;;;-151.14;100.00;62537.16;5050143;28;19928;-83
2023/03/21 08:50:19;;;;;;;;;;;6.50;83.70;;;-151.14;100.00;62537.16;5049855;28;19928;-83
2023/03/21 08:52:47;;;;;;;;;;;6.50;83.70;;;-151.14;100.00;62537.16;5049607;28;20216;-83
2023/03/21 08:55:16;;;;;;;;;;;6.60;83.70;;;-151.14;100.00;62537.16;5049596;28;20093;-84
2023/03/21 08:57:44;;;;;;;;;;;6.60;83.60;;;-151.14;100.00;62537.16;5033296;28;19927;-83
2023/03/21 09:00:13;;;;;;;;;;;6.60;83.60;;;-151.14;100.00;62537.16;5049704;28;19928;-83
2023/03/21 09:02:41;;;;;;;;;;;6.60;83.50;;;-151.14;100.00;62537.16;5049340;28;19920;-84
2023/03/21 09:05:10;;;;;;;;;;;6.60;83.60;;;-151.14;100.00;62537.16;5033181;28;20369;-83
2023/03/21 09:07:40;;;;;;;;;;;6.60;83.50;;;-151.14;100.00;62537.16;5036659;28;19920;-83
2023/03/21 09:10:10;;;;;;;;;;;6.60;83.50;;;-151.14;100.00;62537.16;5053219;28;19927;-83
2023/03/21 09:12:38;;;;;;;;;;;6.60;83.50;;;-151.14;100.00;62537.16;5020238;28;20209;-84
2023/03/21 09:15:07;;;;;;;;;;;6.60;83.50;;;5.41;100.00;62537.16;5053075;28;20249;-84
2023/03/21 09:17:35;;;;;;;;;;;6.60;83.50;;;-151.14;100.00;62537.16;5036516;28;19921;-84
2023/03/21 09:20:07;;;;;;;;;;;6.60;83.40;;;-151.14;100.00;62537.16;5036473;28;19927;-84
2023/03/21 09:22:35;;;;;;;;;;;6.60;83.40;;;-151.14;100.00;62537.16;5052933;28;20209;-83
2023/03/21 09:25:10;;;;;;;;;;;6.60;83.40;;;-151.14;100.00;62537.16;5052811;28;19921;-84
2023/03/21 09:27:38;;;;;;;;;;;6.60;83.40;;;-151.14;100.00;62537.16;5053239;28;19921;-83
2023/03/21 09:30:08;;;;;;;;;;;6.60;83.40;;;-151.14;100.00;62537.16;5036342;28;19921;-83
2023/03/21 09:32:36;;;;;;;;;;;6.70;83.50;;;5.47;100.00;62537.16;5052499;28;19924;-84
2023/03/21 09:35:06;;;;;;;;;;;6.70;83.40;;;-151.14;100.00;62537.16;5054053;28;20112;-84
2023/03/21 09:37:40;;;;;;;;;;;6.70;83.50;;;-151.14;100.00;62537.16;5052857;28;19921;-83
2023/03/21 09:40:15;;;;;;;;;;;6.70;83.50;;;-151.14;100.00;62537.16;5036230;28;19921;-84
2023/03/21 09:42:45;;;;;;;;;;;6.70;83.50;;;5.45;100.00;62537.16;5052341;28;20048;-84
2023/03/21 09:45:16;;;;;;;;;;;6.70;83.60;;;-151.14;100.00;62537.16;5053846;28;19935;-84
2023/03/21 09:47:52;;;;;;;;;;;6.70;83.50;;;-151.14;100.00;62537.16;5036097;28;19927;-83
2023/03/21 09:50:21;;;;;;;;;;;6.70;83.50;;;-151.14;100.00;62537.16;5036140;28;19927;-84
2023/03/21 09:52:51;;;;;;;;;;;6.70;83.50;;;-151.14;100.00;62537.16;5051909;28;19921;-84
2023/03/21 09:55:24;;;;;;;;;;;6.70;83.50;;;-151.14;100.00;62537.16;5052693;28;19921;-83
2023/03/21 09:57:57;;;;;;;;;;;6.70;83.50;;;-151.14;100.00;62537.16;5052494;28;19927;-84
2023/03/21 10:00:28;;;;;;;;;;;6.70;83.40;;;-151.14;100.00;62537.16;5052655;28;19927;-84
2023/03/21 10:03:01;;;;;;;;;;;6.70;83.40;;;-151.14;100.00;62537.16;5051786;28;20115;-84
2023/03/21 10:05:30;;;;;;;;;;;6.70;83.50;;;-151.14;100.00;62537.16;5035881;28;19928;-83
2023/03/21 10:08:03;;;;;;;;;;;6.70;83.50;;;-151.14;100.00;62537.16;5052347;28;19935;-84
2023/03/21 10:10:35;;;;;;;;;;;6.70;83.40;;;-151.14;100.00;62537.16;5035760;28;19921;-83
2023/03/21 10:13:03;;;;;;;;;;;6.80;83.40;;;-151.14;100.00;62537.16;5035075;28;19979;-84
2023/03/21 10:15:31;;;;;;;;;;;6.70;83.40;;;-151.14;100.00;62537.16;5052248;28;19921;-83
2023/03/21 10:18:01;;;;;;;;;;;6.80;83.40;;;-151.14;100.00;62537.16;5034447;28;20205;-84
2023/03/21 10:20:30;;;;;;;;;;;6.80;83.40;;;-151.14;100.00;62537.16;5035542;28;19943;-83
2023/03/21 10:22:59;;;;;;;;;;;6.80;83.40;;;-151.14;100.00;62537.16;5041461;28;19927;-84
2023/03/21 10:25:31;;;;;;;;;;;6.80;83.40;;;-151.14;100.00;62537.16;5073304;28;19920;-84
2023/03/21 10:28:01;;;;;;;;;;;6.80;83.40;;;-151.14;100.00;62537.16;5073166;28;19921;-83
2023/03/21 10:30:36;;;;;;;;;;;6.80;83.40;;;-151.14;100.00;62537.16;5072052;28;19920;-84
2023/03/21 10:33:08;;;;;;;;;;;6.80;83.30;;;-151.14;100.00;62537.16;5054782;28;20228;-84
2023/03/21 10:35:36;;;;;;;;;;;6.80;83.40;;;-151.14;100.00;62537.16;5055403;28;19920;-84
2023/03/21 10:38:04;;;;;;;;;;;6.80;83.20;;;-151.14;100.00;62537.16;5073084;28;20124;-83
2023/03/21 10:40:32;;;;;;;;;;;6.80;83.30;;;-151.14;100.00;62537.16;5071999;28;19920;-84
2023/03/21 10:45:55;;;;;;;;;;;6.80;83.30;;;-151.14;100.00;62537.16;4376444;32;19900;-84
2023/03/21 10:48:24;;;;;;;;;;;6.80;83.20;;;-151.14;100.00;62537.16;5123227;28;35565;-84
2023/03/21 10:50:53;;;;;;;;;;;6.80;83.30;;;-151.14;100.00;62537.16;5107498;28;19927;-84
2023/03/21 10:53:22;;;;;;;;;;;6.80;83.40;;;-151.14;100.00;62537.16;5106741;28;19924;-85
2023/03/21 10:55:51;;;;;;;;;;;6.80;83.40;;;-151.14;100.00;62537.16;5124353;28;19920;-84
2023/03/21 10:58:26;;;;;;;;;;;6.80;83.30;;;-151.14;100.00;62537.16;5090124;28;19920;-84
2023/03/21 11:00:57;;;;;;;;;;;6.80;83.30;;;-151.14;100.00;62537.16;5124317;28;19934;-84
2023/03/21 11:03:30;;;;;;;;;;;6.80;83.40;;;-151.14;100.00;62537.16;5106428;28;19920;-84
2023/03/21 11:06:05;;;;;;;;;;;6.80;83.30;;;-151.14;100.00;62537.16;5108013;28;19926;-84
2023/03/21 11:08:38;;;;;;;;;;;6.80;83.40;;;-151.14;100.00;62537.16;5107121;28;19920;-84
2023/03/21 11:11:07;;;;;;;;;;;6.80;83.40;;;-151.14;100.00;62537.16;5106718;28;19926;-84
2023/03/21 11:13:37;;;;;;;;;;;6.80;83.40;;;-151.14;100.00;62537.16;5106459;28;19920;-84
2023/03/21 11:16:08;;;;;;;;;;;6.80;83.40;;;-151.14;100.00;62537.16;5124091;28;19920;-84
2023/03/21 11:18:40;;;;;;;;;;;6.80;83.30;;;-151.14;100.00;62537.16;5107019;28;19926;-84
2023/03/21 11:21:10;;;;;;;;;;;6.90;83.50;;;-151.14;100.00;62537.16;5124038;28;19920;-84
2023/03/21 11:23:40;;;;;;;;;;;6.80;83.40;;;-151.14;100.00;62537.16;5089273;28;19934;-84
2023/03/21 11:26:09;;;;;;;;;;;6.80;83.30;;;-151.14;100.00;62537.16;5107795;28;20124;-84
2023/03/21 11:28:38;;;;;;;;;;;6.80;83.30;;;-151.14;100.00;62537.16;5106847;28;19982;-85